sensor_id;sensor_type;location;lat;lon;timestamp;temperature;humidity
21622;DHT22;10973;46.706;12.340;2023-09-07T00:01:15;11.40;99.90
21622;DHT22;10973;46.706;12.340;2023-09-07T00:03:43;11.30;99.90
21622;DHT22;10973;46.706;12.340;2023-09-07T00:06:11;11.30;99.90
21622;DHT22;10973;46.706;12.340;2023-09-07T00:08:38;11.30;99.90
21622;DHT22;10973;46.706;12.340;2023-09-07T00:11:06;11.30;99.90
21622;DHT22;10973;46.706;12.340;2023-09-07T00:13:34;11.30;99.90
21622;DHT22;10973;46.706;12.340;2023-09-07T00:16:03;11.30;99.90
21622;DHT22;10973;46.706;12.340;2023-09-07T00:18:32;11.20;99.90
21622;DHT22;10973;46.706;12.340;2023-09-07T00:21:00;11.10;99.90
21622;DHT22;10973;46.706;12.340;2023-09-07T00:23:29;11.10;99.90
21622;DHT22;10973;46.706;12.340;2023-09-07T00:25:56;11.00;99.90
21622;DHT22;10973;46.706;12.340;2023-09-07T00:28:24;11.10;99.90
21622;DHT22;10973;46.706;12.340;2023-09-07T00:30:51;11.00;99.90
21622;DHT22;10973;46.706;12.340;2023-09-07T00:33:19;11.00;99.90
21622;DHT22;10973;46.706;12.340;2023-09-07T00:35:46;11.00;99.90
21622;DHT22;10973;46.706;12.340;2023-09-07T00:38:14;11.00;99.90
21622;DHT22;10973;46.706;12.340;2023-09-07T00:40:44;10.90;99.90
21622;DHT22;10973;46.706;12.340;2023-09-07T00:43:12;10.90;99.90
21622;DHT22;10973;46.706;12.340;2023-09-07T00:45:40;10.90;99.90
21622;DHT22;10973;46.706;12.340;2023-09-07T00:48:08;10.90;99.90
21622;DHT22;10973;46.706;12.340;2023-09-07T00:50:36;10.80;99.90
21622;DHT22;10973;46.706;12.340;2023-09-07T00:53:04;10.90;99.90
21622;DHT22;10973;46.706;12.340;2023-09-07T00:55:33;10.90;99.90
21622;DHT22;10973;46.706;12.340;2023-09-07T00:58:05;10.80;99.90
21622;DHT22;10973;46.706;12.340;2023-09-07T01:00:33;10.70;99.90
21622;DHT22;10973;46.706;12.340;2023-09-07T01:03:02;10.80;99.90
21622;DHT22;10973;46.706;12.340;2023-09-07T01:05:41;10.70;99.90
21622;DHT22;10973;46.706;12.340;2023-09-07T01:08:32;10.60;99.90
21622;DHT22;10973;46.706;12.340;2023-09-07T01:11:19;10.60;99.90
21622;DHT22;10973;46.706;12.340;2023-09-07T01:13:47;10.60;99.90
21622;DHT22;10973;46.706;12.340;2023-09-07T01:16:14;10.50;99.90
21622;DHT22;10973;46.706;12.340;2023-09-07T01:18:42;10.60;99.90
21622;DHT22;10973;46.706;12.340;2023-09-07T01:21:11;10.50;99.90
21622;DHT22;10973;46.706;12.340;2023-09-07T01:23:43;10.50;99.90
21622;DHT22;10973;46.706;12.340;2023-09-07T01:26:12;10.50;99.90
21622;DHT22;10973;46.706;12.340;2023-09-07T01:28:40;10.60;99.90
21622;DHT22;10973;46.706;12.340;2023-09-07T01:31:07;10.50;99.90
21622;DHT22;10973;46.706;12.340;2023-09-07T01:33:35;10.50;99.90
21622;DHT22;10973;46.706;12.340;2023-09-07T01:36:02;10.40;99.90
21622;DHT22;10973;46.706;12.340;2023-09-07T01:38:30;10.30;99.90
21622;DHT22;10973;46.706;12.340;2023-09-07T01:40:58;10.30;99.90
21622;DHT22;10973;46.706;12.340;2023-09-07T01:43:26;10.30;99.90
21622;DHT22;10973;46.706;12.340;2023-09-07T01:45:53;10.30;99.90
21622;DHT22;10973;46.706;12.340;2023-09-07T01:48:21;10.30;99.90
21622;DHT22;10973;46.706;12.340;2023-09-07T01:50:53;10.30;99.90
21622;DHT22;10973;46.706;12.340;2023-09-07T01:53:21;10.30;99.90
21622;DHT22;10973;46.706;12.340;2023-09-07T01:55:48;10.20;99.90
21622;DHT22;10973;46.706;12.340;2023-09-07T01:58:16;10.20;99.90
21622;DHT22;10973;46.706;12.340;2023-09-07T02:00:43;10.10;99.90
21622;DHT22;10973;46.706;12.340;2023-09-07T02:03:11;10.10;99.90
21622;DHT22;10973;46.706;12.340;2023-09-07T02:05:39;10.10;99.90
21622;DHT22;10973;46.706;12.340;2023-09-07T02:08:07;10.20;99.90
21622;DHT22;10973;46.706;12.340;2023-09-07T02:10:34;10.10;99.90
21622;DHT22;10973;46.706;12.340;2023-09-07T02:13:02;10.00;99.90
21622;DHT22;10973;46.706;12.340;2023-09-07T02:15:29;10.00;99.90
21622;DHT22;10973;46.706;12.340;2023-09-07T02:17:57;10.00;99.90
21622;DHT22;10973;46.706;12.340;2023-09-07T02:20:24;10.00;99.90
21622;DHT22;10973;46.706;12.340;2023-09-07T02:22:52;9.90;99.90
21622;DHT22;10973;46.706;12.340;2023-09-07T02:25:19;9.90;99.90
21622;DHT22;10973;46.706;12.340;2023-09-07T02:27:47;9.80;99.90
21622;DHT22;10973;46.706;12.340;2023-09-07T02:30:14;9.80;99.90
21622;DHT22;10973;46.706;12.340;2023-09-07T02:32:42;9.70;99.90
21622;DHT22;10973;46.706;12.340;2023-09-07T02:35:10;9.70;99.90
21622;DHT22;10973;46.706;12.340;2023-09-07T02:37:38;9.70;99.90
21622;DHT22;10973;46.706;12.340;2023-09-07T02:40:06;9.70;99.90
21622;DHT22;10973;46.706;12.340;2023-09-07T02:42:34;9.70;99.90
21622;DHT22;10973;46.706;12.340;2023-09-07T02:45:02;9.70;99.90
21622;DHT22;10973;46.706;12.340;2023-09-07T02:47:29;9.70;99.90
21622;DHT22;10973;46.706;12.340;2023-09-07T02:49:57;9.70;99.90
21622;DHT22;10973;46.706;12.340;2023-09-07T02:52:24;9.70;99.90
21622;DHT22;10973;46.706;12.340;2023-09-07T02:54:52;9.60;99.90
21622;DHT22;10973;46.706;12.340;2023-09-07T02:57:19;9.60;99.90
21622;DHT22;10973;46.706;12.340;2023-09-07T02:59:46;9.50;99.90
21622;DHT22;10973;46.706;12.340;2023-09-07T03:02:14;9.60;99.90
21622;DHT22;10973;46.706;12.340;2023-09-07T03:04:41;9.50;99.90
21622;DHT22;10973;46.706;12.340;2023-09-07T03:07:09;9.50;99.90
21622;DHT22;10973;46.706;12.340;2023-09-07T03:09:36;9.50;99.90
21622;DHT22;10973;46.706;12.340;2023-09-07T03:16:13;9.40;99.90
21622;DHT22;10973;46.706;12.340;2023-09-07T03:18:41;9.40;99.90
21622;DHT22;10973;46.706;12.340;2023-09-07T03:21:08;9.50;99.90
21622;DHT22;10973;46.706;12.340;2023-09-07T03:23:36;9.30;99.90
21622;DHT22;10973;46.706;12.340;2023-09-07T03:26:04;9.30;99.90
21622;DHT22;10973;46.706;12.340;2023-09-07T03:28:31;9.30;99.90
21622;DHT22;10973;46.706;12.340;2023-09-07T03:38:23;9.20;99.90
21622;DHT22;10973;46.706;12.340;2023-09-07T03:40:50;9.10;99.90
21622;DHT22;10973;46.706;12.340;2023-09-07T03:43:17;9.10;99.90
21622;DHT22;10973;46.706;12.340;2023-09-07T04:13:05;9.10;99.90
21622;DHT22;10973;46.706;12.340;2023-09-07T04:15:41;8.90;99.90
21622;DHT22;10973;46.706;12.340;2023-09-07T04:18:12;8.80;99.90
21622;DHT22;10973;46.706;12.340;2023-09-07T04:42:59;8.80;99.90
21622;DHT22;10973;46.706;12.340;2023-09-07T04:45:27;8.70;99.90
21622;DHT22;10973;46.706;12.340;2023-09-07T04:47:54;8.60;99.90
21622;DHT22;10973;46.706;12.340;2023-09-07T04:50:22;8.70;99.90
21622;DHT22;10973;46.706;12.340;2023-09-07T04:52:50;8.60;99.90
21622;DHT22;10973;46.706;12.340;2023-09-07T04:55:18;8.70;99.90
21622;DHT22;10973;46.706;12.340;2023-09-07T04:57:45;8.60;99.90
21622;DHT22;10973;46.706;12.340;2023-09-07T05:00:14;8.50;99.90
21622;DHT22;10973;46.706;12.340;2023-09-07T05:02:45;8.50;99.90
21622;DHT22;10973;46.706;12.340;2023-09-07T05:05:15;8.50;99.90
21622;DHT22;10973;46.706;12.340;2023-09-07T05:07:43;8.70;99.90
21622;DHT22;10973;46.706;12.340;2023-09-07T05:10:11;8.50;99.90
21622;DHT22;10973;46.706;12.340;2023-09-07T05:12:38;8.50;99.90
21622;DHT22;10973;46.706;12.340;2023-09-07T06:59:57;11.30;99.90
21622;DHT22;10973;46.706;12.340;2023-09-07T07:24:35;12.10;99.90
21622;DHT22;10973;46.706;12.340;2023-09-07T07:27:03;11.20;99.90
21622;DHT22;10973;46.706;12.340;2023-09-07T07:29:31;12.10;99.90
21622;DHT22;10973;46.706;12.340;2023-09-07T07:31:59;12.10;99.90
21622;DHT22;10973;46.706;12.340;2023-09-07T07:34:27;12.20;99.90
21622;DHT22;10973;46.706;12.340;2023-09-07T07:36:55;12.30;99.90
21622;DHT22;10973;46.706;12.340;2023-09-07T07:39:22;12.30;99.90
21622;DHT22;10973;46.706;12.340;2023-09-07T07:41:50;12.40;99.90
21622;DHT22;10973;46.706;12.340;2023-09-07T09:01:05;14.80;99.90
21622;DHT22;10973;46.706;12.340;2023-09-07T09:03:35;14.90;99.90
21622;DHT22;10973;46.706;12.340;2023-09-07T09:06:04;14.90;99.90
21622;DHT22;10973;46.706;12.340;2023-09-07T09:09:10;15.00;99.90
21622;DHT22;10973;46.706;12.340;2023-09-07T09:11:37;15.10;99.90
21622;DHT22;10973;46.706;12.340;2023-09-07T09:14:05;15.10;99.90
21622;DHT22;10973;46.706;12.340;2023-09-07T09:16:33;15.20;99.90
21622;DHT22;10973;46.706;12.340;2023-09-07T09:19:00;15.20;99.90
21622;DHT22;10973;46.706;12.340;2023-09-07T09:21:30;15.30;99.90
21622;DHT22;10973;46.706;12.340;2023-09-07T09:23:57;15.40;99.90
21622;DHT22;10973;46.706;12.340;2023-09-07T09:26:25;15.50;99.90
21622;DHT22;10973;46.706;12.340;2023-09-07T09:28:56;15.60;99.90
21622;DHT22;10973;46.706;12.340;2023-09-07T09:31:24;15.70;99.90
21622;DHT22;10973;46.706;12.340;2023-09-07T09:33:52;15.70;99.90
21622;DHT22;10973;46.706;12.340;2023-09-07T09:36:20;15.80;99.90
21622;DHT22;10973;46.706;12.340;2023-09-07T09:38:50;15.90;99.90
21622;DHT22;10973;46.706;12.340;2023-09-07T09:41:20;15.90;99.90
21622;DHT22;10973;46.706;12.340;2023-09-07T09:43:47;16.00;99.90
21622;DHT22;10973;46.706;12.340;2023-09-07T09:46:15;16.10;99.90
21622;DHT22;10973;46.706;12.340;2023-09-07T09:48:44;16.10;99.90
21622;DHT22;10973;46.706;12.340;2023-09-07T09:51:14;16.20;99.90
21622;DHT22;10973;46.706;12.340;2023-09-07T09:53:42;16.40;99.90
21622;DHT22;10973;46.706;12.340;2023-09-07T09:56:10;16.40;99.90
21622;DHT22;10973;46.706;12.340;2023-09-07T09:58:39;16.50;99.90
21622;DHT22;10973;46.706;12.340;2023-09-07T10:01:07;16.60;99.90
21622;DHT22;10973;46.706;12.340;2023-09-07T10:03:47;16.70;99.90
21622;DHT22;10973;46.706;12.340;2023-09-07T10:06:18;16.70;99.90
21622;DHT22;10973;46.706;12.340;2023-09-07T10:09:13;16.80;99.90
21622;DHT22;10973;46.706;12.340;2023-09-07T10:11:41;16.90;99.90
21622;DHT22;10973;46.706;12.340;2023-09-07T10:14:09;17.10;99.90
21622;DHT22;10973;46.706;12.340;2023-09-07T10:16:51;17.40;99.90
21622;DHT22;10973;46.706;12.340;2023-09-07T10:19:24;17.50;99.90
21622;DHT22;10973;46.706;12.340;2023-09-07T10:21:54;17.60;99.90
21622;DHT22;10973;46.706;12.340;2023-09-07T10:27:06;19.30;99.90
21622;DHT22;10973;46.706;12.340;2023-09-07T10:29:50;20.40;99.90
21622;DHT22;10973;46.706;12.340;2023-09-07T10:32:22;21.50;99.90
21622;DHT22;10973;46.706;12.340;2023-09-07T10:34:50;22.20;99.40
21622;DHT22;10973;46.706;12.340;2023-09-07T10:39:45;23.40;99.90
21622;DHT22;10973;46.706;12.340;2023-09-07T10:42:25;23.90;96.10
21622;DHT22;10973;46.706;12.340;2023-09-07T10:44:53;24.30;94.60
21622;DHT22;10973;46.706;12.340;2023-09-07T10:47:21;24.60;94.30
21622;DHT22;10973;46.706;12.340;2023-09-07T10:49:49;25.00;92.90
21622;DHT22;10973;46.706;12.340;2023-09-07T10:52:16;25.40;92.60
21622;DHT22;10973;46.706;12.340;2023-09-07T10:54:45;26.00;91.60
21622;DHT22;10973;46.706;12.340;2023-09-07T10:57:23;25.80;90.40
21622;DHT22;10973;46.706;12.340;2023-09-07T10:59:50;26.40;89.90
21622;DHT22;10973;46.706;12.340;2023-09-07T11:02:18;26.50;88.00
21622;DHT22;10973;46.706;12.340;2023-09-07T11:04:46;26.90;86.90
21622;DHT22;10973;46.706;12.340;2023-09-07T11:07:13;27.20;97.90
21622;DHT22;10973;46.706;12.340;2023-09-07T11:09:42;27.80;82.50
21622;DHT22;10973;46.706;12.340;2023-09-07T11:12:14;27.90;94.00
21622;DHT22;10973;46.706;12.340;2023-09-07T11:14:41;27.50;77.40
21622;DHT22;10973;46.706;12.340;2023-09-07T11:17:10;28.10;78.80
21622;DHT22;10973;46.706;12.340;2023-09-07T11:19:37;28.00;74.90
21622;DHT22;10973;46.706;12.340;2023-09-07T11:22:05;28.10;75.10
21622;DHT22;10973;46.706;12.340;2023-09-07T11:27:02;28.70;73.10
21622;DHT22;10973;46.706;12.340;2023-09-07T11:29:32;28.70;73.70
21622;DHT22;10973;46.706;12.340;2023-09-07T11:32:07;28.90;72.50
21622;DHT22;10973;46.706;12.340;2023-09-07T11:34:52;28.70;71.30
21622;DHT22;10973;46.706;12.340;2023-09-07T11:37:26;28.70;71.60
21622;DHT22;10973;46.706;12.340;2023-09-07T11:39:53;29.10;73.40
21622;DHT22;10973;46.706;12.340;2023-09-07T11:42:21;29.20;71.60
21622;DHT22;10973;46.706;12.340;2023-09-07T11:44:48;29.40;72.50
21622;DHT22;10973;46.706;12.340;2023-09-07T11:47:16;29.30;71.10
21622;DHT22;10973;46.706;12.340;2023-09-07T11:49:43;29.40;72.10
21622;DHT22;10973;46.706;12.340;2023-09-07T11:52:11;29.50;69.30
21622;DHT22;10973;46.706;12.340;2023-09-07T11:54:39;29.30;70.70
21622;DHT22;10973;46.706;12.340;2023-09-07T11:57:07;29.40;70.90
21622;DHT22;10973;46.706;12.340;2023-09-07T11:59:34;29.50;69.90
21622;DHT22;10973;46.706;12.340;2023-09-07T12:02:21;29.50;70.80
21622;DHT22;10973;46.706;12.340;2023-09-07T12:04:49;29.50;70.50
21622;DHT22;10973;46.706;12.340;2023-09-07T12:07:17;29.30;70.00
21622;DHT22;10973;46.706;12.340;2023-09-07T12:09:45;29.30;69.00
21622;DHT22;10973;46.706;12.340;2023-09-07T12:12:13;29.20;69.40
21622;DHT22;10973;46.706;12.340;2023-09-07T12:14:41;29.00;69.50
21622;DHT22;10973;46.706;12.340;2023-09-07T12:17:08;28.90;70.40
21622;DHT22;10973;46.706;12.340;2023-09-07T12:19:36;28.90;69.00
21622;DHT22;10973;46.706;12.340;2023-09-07T12:22:03;28.70;72.40
21622;DHT22;10973;46.706;12.340;2023-09-07T12:24:31;28.50;70.10
21622;DHT22;10973;46.706;12.340;2023-09-07T12:27:03;28.00;69.60
21622;DHT22;10973;46.706;12.340;2023-09-07T12:29:31;28.10;70.80
21622;DHT22;10973;46.706;12.340;2023-09-07T12:31:59;28.50;71.00
21622;DHT22;10973;46.706;12.340;2023-09-07T12:34:26;28.20;70.80
21622;DHT22;10973;46.706;12.340;2023-09-07T12:36:58;28.10;69.90
21622;DHT22;10973;46.706;12.340;2023-09-07T12:39:25;28.20;70.40
21622;DHT22;10973;46.706;12.340;2023-09-07T12:41:53;28.20;68.60
21622;DHT22;10973;46.706;12.340;2023-09-07T12:44:20;27.80;69.20
21622;DHT22;10973;46.706;12.340;2023-09-07T12:46:48;27.80;70.40
21622;DHT22;10973;46.706;12.340;2023-09-07T12:49:16;27.90;70.90
21622;DHT22;10973;46.706;12.340;2023-09-07T12:51:46;27.60;69.90
21622;DHT22;10973;46.706;12.340;2023-09-07T12:54:14;27.70;70.60
21622;DHT22;10973;46.706;12.340;2023-09-07T12:56:41;27.60;70.30
21622;DHT22;10973;46.706;12.340;2023-09-07T12:59:09;27.60;71.10
21622;DHT22;10973;46.706;12.340;2023-09-07T13:01:36;27.40;71.10
21622;DHT22;10973;46.706;12.340;2023-09-07T13:04:04;27.40;71.50
21622;DHT22;10973;46.706;12.340;2023-09-07T13:06:32;27.30;70.10
21622;DHT22;10973;46.706;12.340;2023-09-07T13:09:00;27.20;69.80
21622;DHT22;10973;46.706;12.340;2023-09-07T13:11:27;27.10;70.40
21622;DHT22;10973;46.706;12.340;2023-09-07T13:13:54;27.00;69.00
21622;DHT22;10973;46.706;12.340;2023-09-07T13:16:22;26.90;69.60
21622;DHT22;10973;46.706;12.340;2023-09-07T13:18:49;26.90;70.70
21622;DHT22;10973;46.706;12.340;2023-09-07T13:21:17;26.80;70.30
21622;DHT22;10973;46.706;12.340;2023-09-07T13:23:44;26.90;69.60
21622;DHT22;10973;46.706;12.340;2023-09-07T13:26:12;26.80;70.00
21622;DHT22;10973;46.706;12.340;2023-09-07T13:28:39;26.70;68.20
21622;DHT22;10973;46.706;12.340;2023-09-07T13:31:07;26.50;69.00
21622;DHT22;10973;46.706;12.340;2023-09-07T13:33:34;26.60;70.40
21622;DHT22;10973;46.706;12.340;2023-09-07T13:36:02;25.70;69.60
21622;DHT22;10973;46.706;12.340;2023-09-07T13:38:30;26.70;71.40
21622;DHT22;10973;46.706;12.340;2023-09-07T13:40:57;27.50;74.20
21622;DHT22;10973;46.706;12.340;2023-09-07T13:43:25;26.90;73.30
21622;DHT22;10973;46.706;12.340;2023-09-07T13:45:53;26.70;71.40
21622;DHT22;10973;46.706;12.340;2023-09-07T13:48:23;26.60;72.90
21622;DHT22;10973;46.706;12.340;2023-09-07T13:50:50;26.60;72.80
21622;DHT22;10973;46.706;12.340;2023-09-07T13:53:18;26.80;74.10
21622;DHT22;10973;46.706;12.340;2023-09-07T13:55:46;27.00;72.50
21622;DHT22;10973;46.706;12.340;2023-09-07T13:58:13;27.10;73.50
21622;DHT22;10973;46.706;12.340;2023-09-07T14:00:41;27.30;73.00
21622;DHT22;10973;46.706;12.340;2023-09-07T14:03:08;27.50;70.70
21622;DHT22;10973;46.706;12.340;2023-09-07T14:05:39;27.40;72.50
21622;DHT22;10973;46.706;12.340;2023-09-07T14:08:07;27.30;68.70
21622;DHT22;10973;46.706;12.340;2023-09-07T14:10:35;27.30;66.20
21622;DHT22;10973;46.706;12.340;2023-09-07T14:13:03;28.90;73.30
21622;DHT22;10973;46.706;12.340;2023-09-07T14:15:31;27.80;70.30
21622;DHT22;10973;46.706;12.340;2023-09-07T14:17:58;27.70;68.60
21622;DHT22;10973;46.706;12.340;2023-09-07T14:20:26;27.60;68.70
21622;DHT22;10973;46.706;12.340;2023-09-07T14:22:53;27.40;68.40
21622;DHT22;10973;46.706;12.340;2023-09-07T14:25:21;27.60;68.10
21622;DHT22;10973;46.706;12.340;2023-09-07T14:27:49;27.10;66.90
21622;DHT22;10973;46.706;12.340;2023-09-07T14:30:17;27.20;67.80
21622;DHT22;10973;46.706;12.340;2023-09-07T14:32:45;27.40;69.40
21622;DHT22;10973;46.706;12.340;2023-09-07T14:35:12;27.60;70.40
21622;DHT22;10973;46.706;12.340;2023-09-07T14:37:40;27.90;69.00
21622;DHT22;10973;46.706;12.340;2023-09-07T14:40:08;27.50;68.90
21622;DHT22;10973;46.706;12.340;2023-09-07T14:42:36;27.90;68.70
21622;DHT22;10973;46.706;12.340;2023-09-07T14:45:03;28.10;68.40
21622;DHT22;10973;46.706;12.340;2023-09-07T14:47:31;28.10;66.50
21622;DHT22;10973;46.706;12.340;2023-09-07T14:49:59;28.30;67.00
21622;DHT22;10973;46.706;12.340;2023-09-07T14:52:27;28.20;67.70
21622;DHT22;10973;46.706;12.340;2023-09-07T14:54:56;28.50;67.50
21622;DHT22;10973;46.706;12.340;2023-09-07T14:57:24;28.20;64.70
21622;DHT22;10973;46.706;12.340;2023-09-07T14:59:52;27.90;66.10
21622;DHT22;10973;46.706;12.340;2023-09-07T15:02:19;27.90;65.10
21622;DHT22;10973;46.706;12.340;2023-09-07T15:04:46;27.90;64.80
21622;DHT22;10973;46.706;12.340;2023-09-07T15:07:14;28.30;67.00
21622;DHT22;10973;46.706;12.340;2023-09-07T15:09:41;27.90;65.40
21622;DHT22;10973;46.706;12.340;2023-09-07T15:12:09;27.70;67.60
21622;DHT22;10973;46.706;12.340;2023-09-07T15:14:37;27.70;65.40
21622;DHT22;10973;46.706;12.340;2023-09-07T15:17:05;27.70;66.40
21622;DHT22;10973;46.706;12.340;2023-09-07T15:19:32;27.70;67.60
21622;DHT22;10973;46.706;12.340;2023-09-07T15:22:00;27.80;67.00
21622;DHT22;10973;46.706;12.340;2023-09-07T15:24:28;27.90;67.20
21622;DHT22;10973;46.706;12.340;2023-09-07T15:26:55;28.10;67.00
21622;DHT22;10973;46.706;12.340;2023-09-07T15:29:23;28.00;65.30
21622;DHT22;10973;46.706;12.340;2023-09-07T15:31:50;27.90;67.10
21622;DHT22;10973;46.706;12.340;2023-09-07T15:34:18;28.00;66.50
21622;DHT22;10973;46.706;12.340;2023-09-07T15:36:46;27.90;66.60
21622;DHT22;10973;46.706;12.340;2023-09-07T15:39:14;27.70;65.90
21622;DHT22;10973;46.706;12.340;2023-09-07T15:41:42;27.20;65.50
21622;DHT22;10973;46.706;12.340;2023-09-07T15:44:09;26.70;74.00
21622;DHT22;10973;46.706;12.340;2023-09-07T15:46:37;26.50;80.90
21622;DHT22;10973;46.706;12.340;2023-09-07T15:49:05;26.50;93.80
21622;DHT22;10973;46.706;12.340;2023-09-07T15:51:33;26.70;95.90
21622;DHT22;10973;46.706;12.340;2023-09-07T15:54:00;26.70;95.60
21622;DHT22;10973;46.706;12.340;2023-09-07T15:56:28;26.40;95.80
21622;DHT22;10973;46.706;12.340;2023-09-07T15:58:56;26.30;95.40
21622;DHT22;10973;46.706;12.340;2023-09-07T16:01:23;26.30;87.80
21622;DHT22;10973;46.706;12.340;2023-09-07T16:16:10;24.60;75.80
21622;DHT22;10973;46.706;12.340;2023-09-07T16:18:37;24.20;79.20
21622;DHT22;10973;46.706;12.340;2023-09-07T16:21:05;24.10;77.90
21622;DHT22;10973;46.706;12.340;2023-09-07T16:23:32;24.20;77.50
21622;DHT22;10973;46.706;12.340;2023-09-07T16:26:00;23.90;79.50
21622;DHT22;10973;46.706;12.340;2023-09-07T16:28:27;23.60;81.20
21622;DHT22;10973;46.706;12.340;2023-09-07T16:30:55;23.20;81.20
21622;DHT22;10973;46.706;12.340;2023-09-07T16:33:23;23.10;81.70
21622;DHT22;10973;46.706;12.340;2023-09-07T16:35:50;22.80;83.40
21622;DHT22;10973;46.706;12.340;2023-09-07T16:38:18;23.00;82.90
21622;DHT22;10973;46.706;12.340;2023-09-07T16:40:45;22.40;83.00
21622;DHT22;10973;46.706;12.340;2023-09-07T16:43:13;22.10;85.10
21622;DHT22;10973;46.706;12.340;2023-09-07T16:45:40;21.90;85.70
21622;DHT22;10973;46.706;12.340;2023-09-07T16:48:08;21.50;87.20
21622;DHT22;10973;46.706;12.340;2023-09-07T16:50:35;21.40;87.80
21622;DHT22;10973;46.706;12.340;2023-09-07T16:53:03;21.20;88.80
21622;DHT22;10973;46.706;12.340;2023-09-07T16:55:30;20.90;90.20
21622;DHT22;10973;46.706;12.340;2023-09-07T16:57:58;20.70;90.00
21622;DHT22;10973;46.706;12.340;2023-09-07T17:00:26;20.60;89.80
21622;DHT22;10973;46.706;12.340;2023-09-07T17:02:54;20.60;90.20
21622;DHT22;10973;46.706;12.340;2023-09-07T17:05:21;20.40;90.40
21622;DHT22;10973;46.706;12.340;2023-09-07T17:07:49;20.10;91.80
21622;DHT22;10973;46.706;12.340;2023-09-07T17:10:17;20.10;92.20
21622;DHT22;10973;46.706;12.340;2023-09-07T17:12:44;20.00;91.70
21622;DHT22;10973;46.706;12.340;2023-09-07T17:15:11;19.80;92.30
21622;DHT22;10973;46.706;12.340;2023-09-07T17:17:39;19.70;92.40
21622;DHT22;10973;46.706;12.340;2023-09-07T17:20:07;19.60;92.60
21622;DHT22;10973;46.706;12.340;2023-09-07T17:22:35;19.60;92.90
21622;DHT22;10973;46.706;12.340;2023-09-07T17:25:03;19.50;93.10
21622;DHT22;10973;46.706;12.340;2023-09-07T17:27:31;19.40;93.60
21622;DHT22;10973;46.706;12.340;2023-09-07T17:29:58;19.30;93.70
21622;DHT22;10973;46.706;12.340;2023-09-07T17:32:26;19.20;99.90
21622;DHT22;10973;46.706;12.340;2023-09-07T17:35:02;18.80;99.90
21622;DHT22;10973;46.706;12.340;2023-09-07T18:56:44;16.40;97.40
21622;DHT22;10973;46.706;12.340;2023-09-07T18:59:12;16.40;98.00
21622;DHT22;10973;46.706;12.340;2023-09-07T19:01:39;16.30;98.10
21622;DHT22;10973;46.706;12.340;2023-09-07T19:04:10;16.30;98.40
21622;DHT22;10973;46.706;12.340;2023-09-07T19:06:39;16.20;98.60
21622;DHT22;10973;46.706;12.340;2023-09-07T19:09:07;16.10;98.80
21622;DHT22;10973;46.706;12.340;2023-09-07T19:11:35;16.00;99.00
21622;DHT22;10973;46.706;12.340;2023-09-07T19:14:03;15.90;98.80
21622;DHT22;10973;46.706;12.340;2023-09-07T19:16:31;15.90;98.90
21622;DHT22;10973;46.706;12.340;2023-09-07T19:18:59;15.80;98.90
21622;DHT22;10973;46.706;12.340;2023-09-07T19:21:27;15.90;99.10
21622;DHT22;10973;46.706;12.340;2023-09-07T19:23:55;15.70;99.10
21622;DHT22;10973;46.706;12.340;2023-09-07T19:26:29;15.70;99.30
21622;DHT22;10973;46.706;12.340;2023-09-07T19:29:06;15.70;99.60
21622;DHT22;10973;46.706;12.340;2023-09-07T19:31:37;15.60;99.60
21622;DHT22;10973;46.706;12.340;2023-09-07T19:34:06;15.60;99.60
21622;DHT22;10973;46.706;12.340;2023-09-07T19:36:36;15.50;99.60
21622;DHT22;10973;46.706;12.340;2023-09-07T19:39:05;15.50;99.80
21622;DHT22;10973;46.706;12.340;2023-09-07T19:41:33;15.50;99.60
21622;DHT22;10973;46.706;12.340;2023-09-07T19:44:02;15.40;99.90
21622;DHT22;10973;46.706;12.340;2023-09-07T19:46:30;15.30;99.70
21622;DHT22;10973;46.706;12.340;2023-09-07T19:48:58;15.20;99.80
21622;DHT22;10973;46.706;12.340;2023-09-07T19:51:26;15.20;99.90
21622;DHT22;10973;46.706;12.340;2023-09-07T19:53:54;15.20;99.80
21622;DHT22;10973;46.706;12.340;2023-09-07T19:56:23;15.20;99.80
21622;DHT22;10973;46.706;12.340;2023-09-07T19:58:53;15.10;99.90
21622;DHT22;10973;46.706;12.340;2023-09-07T20:01:22;15.10;99.90
21622;DHT22;10973;46.706;12.340;2023-09-07T20:03:52;14.90;99.90
21622;DHT22;10973;46.706;12.340;2023-09-07T20:06:23;14.90;99.90
21622;DHT22;10973;46.706;12.340;2023-09-07T20:08:51;14.90;99.90
21622;DHT22;10973;46.706;12.340;2023-09-07T20:11:19;14.80;99.90
21622;DHT22;10973;46.706;12.340;2023-09-07T20:13:47;14.90;99.90
21622;DHT22;10973;46.706;12.340;2023-09-07T20:16:14;14.80;99.90
21622;DHT22;10973;46.706;12.340;2023-09-07T20:18:42;14.70;99.90
21622;DHT22;10973;46.706;12.340;2023-09-07T20:21:10;14.60;99.90
21622;DHT22;10973;46.706;12.340;2023-09-07T20:23:37;14.60;99.90
21622;DHT22;10973;46.706;12.340;2023-09-07T20:26:05;14.50;99.90
21622;DHT22;10973;46.706;12.340;2023-09-07T20:28:33;14.50;99.90
21622;DHT22;10973;46.706;12.340;2023-09-07T20:31:01;14.40;99.90
21622;DHT22;10973;46.706;12.340;2023-09-07T20:33:29;14.40;99.90
21622;DHT22;10973;46.706;12.340;2023-09-07T20:35:56;14.40;99.90
21622;DHT22;10973;46.706;12.340;2023-09-07T20:38:24;14.40;99.90
21622;DHT22;10973;46.706;12.340;2023-09-07T20:40:52;14.30;99.90
21622;DHT22;10973;46.706;12.340;2023-09-07T20:43:20;14.00;99.90
21622;DHT22;10973;46.706;12.340;2023-09-07T20:45:47;14.20;99.90
21622;DHT22;10973;46.706;12.340;2023-09-07T20:48:16;14.20;99.90
21622;DHT22;10973;46.706;12.340;2023-09-07T20:50:44;14.10;99.90
21622;DHT22;10973;46.706;12.340;2023-09-07T20:53:12;14.10;99.90
21622;DHT22;10973;46.706;12.340;2023-09-07T20:55:41;14.10;99.90
21622;DHT22;10973;46.706;12.340;2023-09-07T20:58:09;14.00;99.90
21622;DHT22;10973;46.706;12.340;2023-09-07T21:00:36;14.10;99.90
21622;DHT22;10973;46.706;12.340;2023-09-07T21:03:04;14.00;99.90
21622;DHT22;10973;46.706;12.340;2023-09-07T21:05:32;13.90;99.90
21622;DHT22;10973;46.706;12.340;2023-09-07T21:08:00;13.80;99.90
21622;DHT22;10973;46.706;12.340;2023-09-07T21:10:27;13.70;99.90
21622;DHT22;10973;46.706;12.340;2023-09-07T21:12:55;13.70;99.90
21622;DHT22;10973;46.706;12.340;2023-09-07T21:15:23;13.70;99.90
21622;DHT22;10973;46.706;12.340;2023-09-07T21:17:50;13.70;99.90
21622;DHT22;10973;46.706;12.340;2023-09-07T21:20:18;13.70;99.90
21622;DHT22;10973;46.706;12.340;2023-09-07T21:22:45;13.70;99.90
21622;DHT22;10973;46.706;12.340;2023-09-07T21:25:13;13.60;99.90
21622;DHT22;10973;46.706;12.340;2023-09-07T21:27:40;13.50;99.90
21622;DHT22;10973;46.706;12.340;2023-09-07T21:30:08;13.50;99.90